Time;durP1;ratioP1;P1;durP2;ratioP2;P2;SDS_P1;SDS_P2;PMS_P1;PMS_P2;Temp;Humidity;BMP_temperature;BMP_pressure;BME280_temperature;BME280_humidity;BME280_pressure;Samples;Min_cycle;Max_cycle;Signal;HPM_P1;HPM_P2
2021/10/10 00:01:10;;;;;;;8.15;6.88;;;5.00;99.90;;;;;;4953900;29;20106;-73
2021/10/10 00:03:35;;;;;;;11.57;7.35;;;4.90;99.90;;;;;;4954318;29;20046;-73
2021/10/10 00:06:01;;;;;;;9.90;7.53;;;4.90;99.90;;;;;;4953499;29;20062;-72
2021/10/10 00:08:27;;;;;;;12.93;8.50;;;4.70;99.90;;;;;;4953283;28;20491;-73
2021/10/10 00:10:52;;;;;;;12.65;8.50;;;4.60;99.90;;;;;;4966146;28;20022;-73
2021/10/10 00:13:18;;;;;;;13.13;9.45;;;4.60;99.90;;;;;;4953461;29;20363;-73
2021/10/10 00:15:44;;;;;;;10.82;8.65;;;4.40;99.90;;;;;;4954175;28;20038;-73
2021/10/10 00:18:10;;;;;;;11.10;9.32;;;4.40;99.90;;;;;;4964673;28;20030;-72
2021/10/10 00:20:35;;;;;;;12.65;9.20;;;4.40;99.90;;;;;;4953182;29;20031;-73
2021/10/10 00:23:01;;;;;;;10.30;8.85;;;4.20;99.90;;;;;;4953428;29;20027;-72
2021/10/10 00:25:26;;;;;;;11.68;9.32;;;4.20;99.90;;;;;;4953228;29;20028;-73
2021/10/10 00:27:52;;;;;;;12.07;8.65;;;4.30;99.90;;;;;;4936014;29;20163;-73
2021/10/10 00:30:20;;;;;;;9.88;8.20;;;4.10;99.90;;;;;;4953099;29;20521;-73
2021/10/10 00:32:46;;;;;;;11.15;9.23;;;4.30;99.90;;;;;;4953078;28;20054;-72
2021/10/10 00:35:12;;;;;;;13.10;9.80;;;4.50;99.90;;;;;;4936029;29;20122;-73
2021/10/10 00:37:37;;;;;;;15.30;10.98;;;4.30;99.90;;;;;;4935933;29;20401;-72
2021/10/10 00:40:03;;;;;;;15.85;11.52;;;4.30;99.90;;;;;;4953247;29;20035;-72
2021/10/10 00:42:29;;;;;;;13.48;10.93;;;4.30;99.90;;;;;;4953146;29;20035;-73
2021/10/10 00:44:54;;;;;;;17.20;11.52;;;4.40;99.90;;;;;;4952999;28;20114;-72
2021/10/10 00:47:20;;;;;;;16.23;12.57;;;4.40;99.90;;;;;;4953007;29;20024;-73
2021/10/10 00:49:45;;;;;;;12.93;9.75;;;4.40;99.90;;;;;;4935989;29;20024;-72
2021/10/10 00:52:15;;;;;;;17.08;12.13;;;4.30;99.90;;;;;;4952902;29;20102;-73
2021/10/10 00:54:46;;;;;;;19.80;14.43;;;4.20;99.90;;;;;;4936121;29;20027;-73
2021/10/10 00:57:13;;;;;;;13.13;9.90;;;4.20;99.90;;;;;;4956702;28;20550;-73
2021/10/10 00:59:44;;;;;;;17.80;13.20;;;4.10;99.90;;;;;;4939070;28;20478;-72
2021/10/10 01:02:09;;;;;;;13.98;10.20;;;4.10;99.90;;;;;;4939049;29;20023;-73
2021/10/10 01:04:35;;;;;;;15.50;11.63;;;4.20;99.90;;;;;;4956289;29;20031;-73
2021/10/10 01:07:00;;;;;;;14.98;11.95;;;4.20;99.90;;;;;;4956309;29;20367;-73
2021/10/10 01:09:27;;;;;;;17.10;10.75;;;4.20;99.90;;;;;;4958801;28;20019;-73
2021/10/10 01:11:53;;;;;;;14.40;9.98;;;4.10;99.90;;;;;;4948606;28;20059;-72
2021/10/10 01:14:18;;;;;;;12.40;9.48;;;4.40;99.90;;;;;;4955982;29;20566;-73
2021/10/10 01:16:44;;;;;;;10.50;7.82;;;4.20;99.90;;;;;;4965127;28;20035;-73
2021/10/10 01:19:09;;;;;;;10.45;8.02;;;4.40;99.90;;;;;;4942404;29;20023;-73
2021/10/10 01:21:35;;;;;;;11.73;8.02;;;4.50;99.90;;;;;;4938721;29;20023;-73
2021/10/10 01:24:03;;;;;;;10.73;7.88;;;4.50;99.90;;;;;;4956006;28;20039;-73
2021/10/10 01:26:30;;;;;;;10.57;7.78;;;4.50;99.90;;;;;;4938662;29;20023;-73
2021/10/10 01:28:56;;;;;;;10.13;7.60;;;4.50;99.90;;;;;;4955746;28;20027;-73
2021/10/10 01:31:21;;;;;;;10.13;8.00;;;4.60;99.90;;;;;;4955676;29;20038;-73
2021/10/10 01:33:47;;;;;;;9.27;7.43;;;4.50;99.90;;;;;;4938604;29;20030;-72
2021/10/10 01:36:13;;;;;;;9.50;7.47;;;4.60;99.90;;;;;;4938515;29;20027;-72
2021/10/10 01:38:42;;;;;;;9.88;7.50;;;4.70;99.90;;;;;;4938716;29;20125;-73
2021/10/10 01:41:09;;;;;;;9.75;8.10;;;4.60;99.90;;;;;;4938170;29;20027;-73
2021/10/10 01:43:35;;;;;;;11.15;7.65;;;4.40;99.90;;;;;;4938427;28;20027;-73
2021/10/10 01:46:01;;;;;;;9.30;7.88;;;4.40;99.90;;;;;;4955597;28;20034;-73
2021/10/10 01:48:27;;;;;;;10.93;8.18;;;4.20;99.90;;;;;;4955502;29;20038;-72
2021/10/10 01:50:52;;;;;;;10.25;8.10;;;4.20;99.90;;;;;;4955345;28;20027;-73
2021/10/10 01:53:18;;;;;;;10.35;8.43;;;4.10;99.90;;;;;;4955459;29;20027;-72
2021/10/10 01:55:44;;;;;;;10.30;8.30;;;4.10;99.90;;;;;;4938196;29;20034;-72
2021/10/10 01:58:10;;;;;;;10.45;8.15;;;3.90;99.90;;;;;;4955716;29;20020;-73
2021/10/10 02:00:36;;;;;;;9.88;8.18;;;3.90;99.90;;;;;;4955341;28;20035;-72
2021/10/10 02:03:02;;;;;;;9.50;8.00;;;3.90;99.90;;;;;;4938169;29;20077;-72
2021/10/10 02:05:27;;;;;;;11.18;8.68;;;3.90;99.90;;;;;;4938032;29;20027;-73
2021/10/10 02:07:53;;;;;;;11.20;8.27;;;4.00;99.90;;;;;;4936996;29;20059;-73
2021/10/10 02:10:19;;;;;;;9.07;8.15;;;3.60;99.90;;;;;;4965140;28;20030;-73
2021/10/10 02:12:45;;;;;;;10.90;8.25;;;3.50;99.90;;;;;;4957576;28;20030;-72
2021/10/10 02:15:11;;;;;;;9.55;8.15;;;3.70;99.90;;;;;;4955322;29;20023;-73
2021/10/10 02:17:37;;;;;;;13.40;8.38;;;3.70;99.90;;;;;;4967492;28;20470;-73
2021/10/10 02:20:05;;;;;;;9.00;7.63;;;3.60;99.90;;;;;;4955006;29;20038;-72
2021/10/10 02:22:31;;;;;;;10.05;7.72;;;3.60;99.90;;;;;;4954694;28;20028;-73
2021/10/10 02:24:56;;;;;;;9.68;8.05;;;3.60;99.90;;;;;;4954789;28;20363;-72
2021/10/10 02:27:22;;;;;;;10.45;8.48;;;3.50;99.90;;;;;;4954550;29;20416;-72
2021/10/10 02:29:47;;;;;;;10.77;8.10;;;3.60;99.90;;;;;;4954911;29;20042;-73
2021/10/10 02:32:13;;;;;;;9.23;7.85;;;3.50;99.90;;;;;;4954472;29;20032;-73
2021/10/10 02:34:38;;;;;;;10.38;7.88;;;3.50;99.90;;;;;;4937563;29;20046;-72
2021/10/10 02:37:04;;;;;;;10.77;8.23;;;3.40;99.90;;;;;;4937434;29;20035;-73
2021/10/10 02:39:29;;;;;;;11.90;8.73;;;3.50;99.90;;;;;;4954642;28;20114;-72
2021/10/10 02:41:55;;;;;;;15.10;8.82;;;3.40;99.90;;;;;;4954393;29;20038;-73
2021/10/10 02:44:20;;;;;;;10.77;8.13;;;3.40;99.90;;;;;;4954455;29;20035;-73
2021/10/10 02:46:46;;;;;;;10.50;7.72;;;3.50;99.90;;;;;;4937278;29;20093;-72
2021/10/10 02:49:11;;;;;;;12.52;7.78;;;3.40;99.90;;;;;;4954527;29;20034;-73
2021/10/10 02:51:37;;;;;;;9.73;8.60;;;3.30;99.90;;;;;;4954358;28;20063;-72
2021/10/10 02:54:02;;;;;;;10.52;8.10;;;3.20;99.90;;;;;;4954500;29;20078;-73
2021/10/10 02:56:28;;;;;;;12.02;8.05;;;3.10;99.90;;;;;;4954508;28;20492;-73
2021/10/10 02:58:53;;;;;;;10.90;8.20;;;3.20;99.90;;;;;;4954452;28;20023;-73
2021/10/10 03:01:19;;;;;;;12.57;8.30;;;3.10;99.90;;;;;;4954738;29;20019;-73
2021/10/10 03:03:44;;;;;;;10.73;8.30;;;3.20;99.90;;;;;;4954286;29;20027;-73
2021/10/10 03:06:10;;;;;;;12.15;8.23;;;3.30;99.90;;;;;;4954487;28;20050;-73
2021/10/10 03:08:39;;;;;;;10.40;8.35;;;3.20;99.90;;;;;;4954072;28;20024;-73
2021/10/10 03:11:05;;;;;;;9.85;8.52;;;3.30;99.90;;;;;;4949388;29;20027;-73
2021/10/10 03:13:30;;;;;;;12.02;8.48;;;3.20;99.90;;;;;;4953996;29;20042;-73
2021/10/10 03:15:57;;;;;;;11.20;8.70;;;3.20;99.90;;;;;;4956697;28;20425;-73
2021/10/10 03:18:23;;;;;;;9.75;8.38;;;3.00;99.90;;;;;;4946042;29;20027;-73
2021/10/10 03:20:48;;;;;;;11.60;8.80;;;3.00;99.90;;;;;;4953699;29;20478;-73
2021/10/10 03:23:14;;;;;;;8.68;7.78;;;3.10;99.90;;;;;;4936965;29;20032;-73
2021/10/10 03:25:40;;;;;;;9.40;8.02;;;3.10;99.90;;;;;;4954168;28;20477;-73
2021/10/10 03:28:05;;;;;;;12.70;8.15;;;3.10;99.90;;;;;;4936535;29;20031;-73
2021/10/10 03:30:31;;;;;;;9.25;8.27;;;3.10;99.90;;;;;;4953662;29;20547;-73
2021/10/10 03:32:56;;;;;;;10.55;8.13;;;2.90;99.90;;;;;;4953753;28;20078;-73
2021/10/10 03:35:22;;;;;;;11.63;8.05;;;2.70;99.90;;;;;;4953692;29;20389;-73
2021/10/10 03:37:47;;;;;;;11.23;8.18;;;2.80;99.90;;;;;;4936455;29;20035;-72
2021/10/10 03:40:13;;;;;;;10.75;8.30;;;2.90;99.90;;;;;;4953862;29;20035;-73
2021/10/10 03:42:39;;;;;;;13.23;8.27;;;2.90;99.90;;;;;;4953480;29;20126;-72
2021/10/10 03:45:06;;;;;;;10.80;7.78;;;3.00;99.90;;;;;;4953747;29;20027;-73
2021/10/10 03:47:32;;;;;;;10.55;8.13;;;2.80;99.90;;;;;;4936304;29;20402;-73
2021/10/10 03:49:58;;;;;;;10.60;8.63;;;2.90;99.90;;;;;;4953606;28;20027;-73
2021/10/10 03:52:23;;;;;;;11.68;8.25;;;2.90;99.90;;;;;;4953402;29;20023;-73
2021/10/10 03:57:22;;;;;;;11.93;8.38;;;2.90;99.90;;;;;;4953821;29;20038;-73
2021/10/10 03:59:52;;;;;;;9.40;8.40;;;2.80;99.90;;;;;;4953671;29;20020;-73
2021/10/10 04:02:18;;;;;;;10.57;8.20;;;2.90;99.90;;;;;;4953412;29;20051;-73
2021/10/10 04:04:43;;;;;;;10.45;8.40;;;2.80;99.90;;;;;;4936496;29;20066;-73
2021/10/10 04:07:09;;;;;;;9.63;8.57;;;2.80;99.90;;;;;;4936148;28;20027;-73
2021/10/10 04:09:34;;;;;;;11.02;8.70;;;2.80;99.90;;;;;;4957442;28;20034;-73
2021/10/10 04:12:00;;;;;;;12.20;8.55;;;2.70;99.90;;;;;;4962004;28;20030;-73
2021/10/10 04:14:25;;;;;;;9.90;8.68;;;2.60;99.90;;;;;;4953365;29;20437;-73
2021/10/10 04:16:51;;;;;;;11.40;8.90;;;2.50;99.90;;;;;;4963321;28;20037;-73
2021/10/10 04:19:16;;;;;;;11.48;8.43;;;2.60;99.90;;;;;;4955887;28;20070;-72
2021/10/10 04:21:42;;;;;;;8.68;7.85;;;2.60;99.90;;;;;;4953030;29;20063;-72
2021/10/10 04:24:07;;;;;;;11.43;8.20;;;2.80;99.90;;;;;;4953234;29;20038;-72
2021/10/10 04:26:33;;;;;;;14.43;9.95;;;2.40;99.90;;;;;;4953071;29;20034;-72
2021/10/10 04:28:58;;;;;;;10.38;9.27;;;2.50;99.90;;;;;;4936083;28;20023;-72
2021/10/10 04:31:24;;;;;;;9.82;8.45;;;2.60;99.90;;;;;;4956125;28;20050;-73
2021/10/10 04:33:49;;;;;;;9.27;8.27;;;2.50;99.90;;;;;;4956981;28;20106;-73
2021/10/10 04:36:15;;;;;;;10.32;8.55;;;2.50;99.90;;;;;;4956839;28;20446;-73
2021/10/10 04:38:40;;;;;;;10.57;9.18;;;2.40;99.90;;;;;;4956834;28;20478;-73
2021/10/10 04:41:06;;;;;;;9.63;8.63;;;2.30;99.90;;;;;;4956562;28;20031;-73
2021/10/10 04:43:32;;;;;;;11.40;8.88;;;2.20;99.90;;;;;;4939502;29;20027;-72
2021/10/10 04:45:57;;;;;;;10.52;9.15;;;2.30;99.90;;;;;;4956712;28;20405;-73
2021/10/10 04:48:23;;;;;;;11.10;8.90;;;2.30;99.90;;;;;;4939444;29;20497;-73
2021/10/10 04:50:48;;;;;;;12.00;9.70;;;2.30;99.90;;;;;;4939019;28;20054;-73
2021/10/10 04:53:14;;;;;;;12.43;8.93;;;2.30;99.90;;;;;;4956554;28;20023;-73
2021/10/10 04:55:39;;;;;;;12.50;8.65;;;2.50;99.90;;;;;;4956591;29;20031;-72
2021/10/10 04:58:05;;;;;;;12.52;8.65;;;2.60;99.90;;;;;;4939315;29;20031;-72
2021/10/10 05:00:30;;;;;;;11.68;9.32;;;2.60;99.90;;;;;;4956344;29;20035;-72
2021/10/10 05:02:56;;;;;;;10.55;9.05;;;2.60;99.90;;;;;;4956355;28;20031;-72
2021/10/10 05:05:21;;;;;;;13.10;9.98;;;2.70;99.90;;;;;;4956222;29;20438;-72
2021/10/10 05:07:47;;;;;;;12.50;11.00;;;2.60;99.90;;;;;;4956173;29;20110;-72
2021/10/10 05:10:12;;;;;;;13.35;10.63;;;2.00;99.90;;;;;;4948182;28;20109;-73
2021/10/10 05:12:38;;;;;;;14.00;10.55;;;2.10;99.90;;;;;;4942455;29;20505;-73
2021/10/10 05:15:05;;;;;;;11.57;9.52;;;2.30;99.90;;;;;;4956294;28;20035;-73
2021/10/10 05:17:30;;;;;;;11.23;9.02;;;2.40;99.90;;;;;;4968674;28;20102;-73
2021/10/10 05:19:56;;;;;;;13.02;10.40;;;2.40;99.90;;;;;;4956140;29;20534;-73
2021/10/10 05:22:22;;;;;;;10.85;8.88;;;2.30;99.90;;;;;;4955796;29;20062;-73
2021/10/10 05:24:48;;;;;;;11.68;9.23;;;2.30;99.90;;;;;;4956009;29;20031;-72
2021/10/10 05:27:13;;;;;;;13.55;10.10;;;2.20;99.90;;;;;;4955958;29;20089;-72
2021/10/10 05:29:39;;;;;;;12.98;10.75;;;1.90;99.90;;;;;;4938703;29;20118;-72
2021/10/10 05:32:05;;;;;;;14.98;12.82;;;2.00;99.90;;;;;;4955726;29;20078;-73
2021/10/10 05:34:32;;;;;;;18.63;13.82;;;1.90;99.90;;;;;;4955760;28;20158;-72
2021/10/10 05:36:57;;;;;;;15.43;10.40;;;1.90;99.90;;;;;;4938681;29;20031;-73
2021/10/10 05:39:23;;;;;;;12.43;11.07;;;1.90;99.90;;;;;;4955981;29;20023;-73
2021/10/10 05:41:49;;;;;;;16.85;12.82;;;1.90;99.90;;;;;;4955335;28;20422;-73
2021/10/10 05:44:14;;;;;;;21.20;16.48;;;1.90;99.90;;;;;;4955709;28;20035;-72
2021/10/10 05:46:40;;;;;;;30.00;23.15;;;2.10;99.90;;;;;;4955443;28;20078;-72
2021/10/10 05:49:05;;;;;;;35.17;24.48;;;2.00;99.90;;;;;;4955760;28;20064;-73
2021/10/10 05:51:31;;;;;;;33.22;24.50;;;2.10;99.90;;;;;;4956256;28;20469;-73
2021/10/10 05:53:56;;;;;;;27.30;19.48;;;2.10;99.90;;;;;;4956985;29;20042;-73
2021/10/10 05:56:22;;;;;;;16.73;13.02;;;2.20;99.90;;;;;;4955393;29;20027;-72
2021/10/10 05:58:55;;;;;;;14.30;11.13;;;2.10;99.90;;;;;;4938130;29;20038;-73
2021/10/10 06:01:20;;;;;;;18.45;13.60;;;2.10;99.90;;;;;;4955066;29;20066;-73
2021/10/10 06:03:46;;;;;;;20.33;13.40;;;1.80;99.90;;;;;;4955244;29;20066;-73
2021/10/10 06:06:11;;;;;;;18.90;15.63;;;2.00;99.90;;;;;;4954994;29;20043;-73
2021/10/10 06:08:37;;;;;;;18.98;14.35;;;2.10;99.90;;;;;;4955128;28;20114;-72
2021/10/10 06:11:02;;;;;;;16.08;14.05;;;2.20;99.90;;;;;;4950978;28;20050;-72
2021/10/10 06:13:28;;;;;;;16.38;13.35;;;2.30;99.90;;;;;;4955192;29;20062;-72
2021/10/10 06:15:55;;;;;;;15.68;13.63;;;2.40;99.90;;;;;;4957228;28;20039;-72
2021/10/10 06:18:22;;;;;;;17.13;13.55;;;2.40;99.90;;;;;;4964807;28;20524;-72
2021/10/10 06:20:47;;;;;;;14.40;11.43;;;2.50;99.90;;;;;;4954762;29;20054;-72
2021/10/10 06:23:13;;;;;;;13.80;11.15;;;2.50;99.90;;;;;;4954994;29;20501;-72
2021/10/10 06:25:40;;;;;;;12.13;10.35;;;2.70;99.90;;;;;;4937639;29;20035;-72
2021/10/10 06:28:06;;;;;;;15.60;10.93;;;2.70;99.90;;;;;;4954753;29;20390;-73
2021/10/10 06:30:31;;;;;;;11.35;10.15;;;2.80;99.90;;;;;;4937396;29;20031;-73
2021/10/10 06:32:57;;;;;;;13.82;10.07;;;2.90;99.90;;;;;;4954529;29;20113;-73
2021/10/10 06:35:23;;;;;;;13.57;10.65;;;2.90;99.90;;;;;;4954558;29;20393;-73
2021/10/10 06:37:48;;;;;;;15.00;11.13;;;3.20;99.90;;;;;;4954609;29;20114;-73
2021/10/10 06:40:14;;;;;;;13.00;10.32;;;3.10;99.90;;;;;;4937344;29;20049;-73
2021/10/10 06:42:39;;;;;;;13.95;10.27;;;3.30;99.90;;;;;;4954403;29;20386;-73
2021/10/10 06:45:05;;;;;;;13.02;10.45;;;3.40;99.90;;;;;;4937182;29;20041;-73
2021/10/10 06:47:31;;;;;;;15.35;12.10;;;3.50;99.90;;;;;;4954243;28;20024;-73
2021/10/10 06:49:56;;;;;;;17.70;12.35;;;3.40;99.90;;;;;;4954378;29;20545;-73
2021/10/10 06:52:22;;;;;;;15.40;12.20;;;3.40;99.90;;;;;;4936615;28;20027;-73
2021/10/10 06:54:47;;;;;;;15.25;11.55;;;3.50;99.90;;;;;;4954332;29;20031;-73
2021/10/10 06:57:13;;;;;;;14.38;12.75;;;3.60;99.90;;;;;;4954320;29;20110;-73
2021/10/10 06:59:38;;;;;;;20.45;14.15;;;3.50;99.90;;;;;;4954241;28;20031;-72
2021/10/10 07:02:04;;;;;;;16.80;13.13;;;3.50;99.90;;;;;;4954009;28;20039;-72
2021/10/10 07:04:29;;;;;;;14.38;11.55;;;3.70;99.90;;;;;;4954124;29;20027;-73
2021/10/10 07:06:55;;;;;;;13.57;11.43;;;3.90;99.90;;;;;;4936939;29;20027;-73
2021/10/10 07:09:20;;;;;;;14.52;12.55;;;4.00;99.90;;;;;;4956289;28;20023;-73
2021/10/10 07:11:46;;;;;;;15.55;12.50;;;4.10;99.90;;;;;;4964634;28;20099;-73
2021/10/10 07:14:11;;;;;;;15.02;11.95;;;4.20;99.90;;;;;;4954036;29;20028;-72
2021/10/10 07:16:37;;;;;;;15.73;11.82;;;4.30;99.90;;;;;;4961898;28;20042;-72
2021/10/10 07:19:04;;;;;;;15.93;11.55;;;4.30;99.90;;;;;;4958490;28;20719;-72
2021/10/10 07:21:54;;;;;;;14.43;11.80;;;4.50;99.90;;;;;;4936375;29;20118;-73
2021/10/10 07:27:03;;;;;;;16.80;11.73;;;4.60;99.90;;;;;;4953765;28;20089;-73
2021/10/10 07:29:29;;;;;;;15.93;12.13;;;4.80;99.90;;;;;;4936656;29;20114;-73
2021/10/10 07:31:54;;;;;;;16.02;10.73;;;4.80;99.90;;;;;;4936514;29;20084;-73
2021/10/10 07:34:20;;;;;;;14.57;10.90;;;4.90;99.90;;;;;;4953705;29;20034;-73
2021/10/10 07:36:45;;;;;;;17.00;10.88;;;4.90;99.90;;;;;;4953709;28;20031;-73
2021/10/10 07:39:11;;;;;;;15.90;10.50;;;5.00;99.90;;;;;;4953737;28;20106;-73
2021/10/10 07:41:40;;;;;;;15.20;10.93;;;5.00;99.90;;;;;;4936132;29;20026;-73
2021/10/10 07:44:12;;;;;;;14.27;10.98;;;5.10;99.90;;;;;;4953731;28;20074;-73
2021/10/10 07:46:40;;;;;;;13.18;10.07;;;5.20;99.90;;;;;;4953780;29;20470;-73
2021/10/10 07:49:08;;;;;;;14.18;11.43;;;5.30;99.90;;;;;;4953675;29;20054;-73
2021/10/10 07:51:34;;;;;;;16.02;11.23;;;5.30;99.90;;;;;;4953327;29;20501;-73
2021/10/10 07:54:00;;;;;;;14.85;10.93;;;5.40;99.90;;;;;;4936342;29;20037;-73
2021/10/10 07:56:26;;;;;;;13.43;10.88;;;5.50;99.90;;;;;;4936251;29;20027;-73
2021/10/10 07:58:51;;;;;;;14.30;11.27;;;5.50;99.90;;;;;;4936444;29;20039;-73
2021/10/10 08:01:17;;;;;;;16.13;11.13;;;5.50;99.90;;;;;;4953292;29;20031;-73
2021/10/10 08:03:42;;;;;;;14.35;10.85;;;5.50;99.90;;;;;;4953536;28;20038;-73
2021/10/10 08:06:09;;;;;;;15.68;11.25;;;5.50;99.90;;;;;;4956167;29;20395;-73
2021/10/10 08:08:35;;;;;;;17.20;10.90;;;5.60;99.90;;;;;;4957302;28;20086;-73
2021/10/10 08:11:00;;;;;;;14.80;11.35;;;5.80;99.90;;;;;;4970081;28;20036;-73
2021/10/10 08:13:26;;;;;;;14.77;11.45;;;5.90;99.90;;;;;;4957320;28;20042;-73
2021/10/10 08:15:51;;;;;;;16.20;11.52;;;6.00;99.90;;;;;;4959197;28;20497;-73
2021/10/10 08:18:17;;;;;;;17.70;11.02;;;6.20;99.90;;;;;;4967577;28;20482;-73
2021/10/10 08:20:44;;;;;;;18.15;10.80;;;6.30;99.90;;;;;;4956928;29;20032;-73
2021/10/10 08:23:10;;;;;;;16.85;11.35;;;6.50;99.90;;;;;;4939971;29;20027;-73
2021/10/10 08:25:36;;;;;;;12.15;10.25;;;6.60;99.90;;;;;;4939654;29;20051;-73
2021/10/10 08:28:02;;;;;;;14.40;10.60;;;6.60;99.90;;;;;;4957015;29;20069;-73
2021/10/10 08:30:27;;;;;;;14.32;10.75;;;6.70;99.90;;;;;;4956943;29;20031;-73
2021/10/10 08:32:53;;;;;;;14.95;10.02;;;6.70;99.90;;;;;;4939630;29;20020;-73
2021/10/10 08:35:19;;;;;;;12.63;10.02;;;6.90;99.90;;;;;;4956940;29;20039;-73
2021/10/10 08:37:45;;;;;;;13.43;10.02;;;7.00;99.90;;;;;;4956794;28;20417;-73
2021/10/10 08:40:12;;;;;;;15.57;10.65;;;7.10;99.90;;;;;;4939431;29;20031;-73
2021/10/10 08:42:41;;;;;;;18.00;9.40;;;7.10;99.90;;;;;;4956553;28;20031;-73
2021/10/10 08:45:09;;;;;;;17.50;10.57;;;7.20;99.90;;;;;;4956584;28;20031;-73
2021/10/10 08:47:42;;;;;;;17.20;10.07;;;7.30;99.90;;;;;;4939379;29;20028;-73
2021/10/10 08:50:19;;;;;;;13.55;9.63;;;7.40;99.90;;;;;;4939476;29;20047;-73
2021/10/10 08:52:46;;;;;;;16.30;10.55;;;7.50;99.90;;;;;;4956722;29;20054;-73
2021/10/10 08:55:13;;;;;;;14.38;9.70;;;7.50;99.90;;;;;;4958408;28;20031;-73
2021/10/10 08:57:40;;;;;;;14.43;9.48;;;7.60;99.90;;;;;;4958021;29;20035;-73
2021/10/10 09:00:11;;;;;;;12.68;9.48;;;7.60;99.90;;;;;;4956985;29;20482;-73
2021/10/10 09:02:38;;;;;;;13.07;9.73;;;7.80;99.90;;;;;;4939057;29;20034;-72
2021/10/10 09:05:08;;;;;;;13.38;9.52;;;7.80;99.90;;;;;;4938971;29;20035;-73
2021/10/10 09:07:36;;;;;;;15.55;9.65;;;7.80;99.90;;;;;;4956214;29;20070;-73
2021/10/10 09:10:22;;;;;;;12.55;8.70;;;7.90;99.90;;;;;;4956118;28;20114;-73
2021/10/10 09:12:48;;;;;;;;;;;8.00;99.90;;;;;;4939255;29;20061;-73
2021/10/10 09:15:21;;;;;;;12.75;9.35;;;8.00;99.90;;;;;;4939024;28;19941;-73
2021/10/10 09:18:00;;;;;;;14.18;9.13;;;8.10;99.90;;;;;;4968308;28;20038;-73
2021/10/10 09:20:36;;;;;;;13.40;9.00;;;8.20;99.90;;;;;;4938983;29;20031;-73
2021/10/10 09:23:05;;;;;;;12.77;8.77;;;8.30;99.90;;;;;;4937000;29;20032;-73
2021/10/10 09:25:31;;;;;;;16.05;8.70;;;8.50;99.90;;;;;;4936732;29;20028;-73
2021/10/10 09:28:03;;;;;;;13.07;9.15;;;8.70;99.90;;;;;;4936518;29;20557;-73
2021/10/10 09:30:44;;;;;;;10.63;8.30;;;8.60;99.90;;;;;;4919885;29;20500;-72
2021/10/10 09:33:10;;;;;;;13.25;9.00;;;8.60;99.90;;;;;;4937015;29;20370;-72
2021/10/10 09:35:35;;;;;;;11.73;8.57;;;8.90;99.90;;;;;;4936663;29;20107;-73
2021/10/10 09:38:11;;;;;;;12.13;9.10;;;9.00;99.90;;;;;;4919710;29;20122;-73
2021/10/10 09:40:49;;;;;;;13.63;9.60;;;9.00;99.90;;;;;;4942135;29;20038;-72
2021/10/10 09:43:15;;;;;;;11.48;8.40;;;8.90;99.90;;;;;;4938545;29;20498;-73
2021/10/10 09:45:52;;;;;;;13.43;8.73;;;9.00;99.90;;;;;;4955621;28;20038;-73
2021/10/10 09:48:32;;;;;;;12.27;8.32;;;9.10;99.90;;;;;;4955575;28;20498;-73
2021/10/10 09:50:58;;;;;;;12.73;8.32;;;9.20;99.90;;;;;;4955392;29;20031;-73
2021/10/10 09:53:32;;;;;;;12.63;8.02;;;9.20;99.90;;;;;;4955586;29;20036;-73
2021/10/10 09:56:09;;;;;;;13.13;8.63;;;9.30;99.90;;;;;;4955517;28;20501;-71
2021/10/10 09:58:40;;;;;;;13.25;8.77;;;9.60;99.90;;;;;;4938107;29;20489;-73
2021/10/10 10:01:15;;;;;;;14.13;8.38;;;9.60;99.90;;;;;;4955054;29;20054;-73
2021/10/10 10:04:06;;;;;;;13.02;8.32;;;9.70;99.90;;;;;;4938195;29;20118;-73
2021/10/10 10:06:34;;;;;;;11.35;7.88;;;9.70;99.90;;;;;;4937927;29;20110;-73
2021/10/10 10:09:05;;;;;;;12.70;7.72;;;9.70;99.90;;;;;;4955269;28;20030;-73
2021/10/10 10:11:33;;;;;;;13.43;7.55;;;9.70;99.90;;;;;;4934499;29;20028;-73
2021/10/10 10:14:02;;;;;;;11.48;7.88;;;9.70;99.90;;;;;;4918836;29;20107;-73
2021/10/10 10:16:30;;;;;;;11.85;7.53;;;9.80;99.90;;;;;;4949434;28;20049;-73
2021/10/10 10:18:58;;;;;;;11.15;7.53;;;9.90;99.90;;;;;;4942774;29;20065;-73
2021/10/10 10:21:25;;;;;;;10.77;7.13;;;10.00;99.90;;;;;;4954771;28;20032;-73
2021/10/10 10:23:52;;;;;;;11.38;7.88;;;10.00;99.90;;;;;;4954972;28;20545;-73
2021/10/10 10:26:19;;;;;;;10.15;7.32;;;10.50;99.90;;;;;;4954751;29;20367;-73
2021/10/10 10:28:45;;;;;;;10.15;7.00;;;11.00;99.90;;;;;;4954118;28;20533;-73
2021/10/10 10:31:12;;;;;;;16.02;7.53;;;10.90;99.90;;;;;;4954635;29;20027;-73
2021/10/10 10:33:38;;;;;;;11.63;7.60;;;11.00;99.90;;;;;;4937541;29;20513;-73
2021/10/10 10:36:04;;;;;;;10.25;6.97;;;11.20;99.90;;;;;;4954893;29;20027;-73
2021/10/10 10:38:42;;;;;;;13.63;7.03;;;10.90;99.90;;;;;;4937361;29;20457;-73
2021/10/10 10:41:27;;;;;;;10.10;6.43;;;10.70;99.90;;;;;;4937278;29;20038;-73
2021/10/10 10:43:53;;;;;;;8.77;6.57;;;10.80;99.90;;;;;;4937120;29;20049;-73
2021/10/10 10:46:19;;;;;;;10.00;6.68;;;11.20;99.90;;;;;;4954357;29;20114;-73
2021/10/10 10:48:44;;;;;;;11.23;6.95;;;11.10;99.90;;;;;;4954411;29;20031;-73
2021/10/10 10:51:28;;;;;;;11.32;6.70;;;11.00;99.90;;;;;;4954292;29;20024;-73
2021/10/10 10:53:54;;;;;;;11.32;7.38;;;10.90;99.90;;;;;;4937363;29;20406;-73
2021/10/10 10:56:34;;;;;;;13.40;7.25;;;11.40;99.90;;;;;;4954335;29;20030;-73
2021/10/10 10:59:00;;;;;;;11.52;7.13;;;11.10;99.90;;;;;;4937133;29;20679;-73
2021/10/10 11:01:56;;;;;;;10.45;7.53;;;11.00;99.90;;;;;;4936754;29;20110;-73
2021/10/10 11:04:25;;;;;;;12.43;7.20;;;11.00;99.90;;;;;;4954220;29;20031;-73
2021/10/10 11:06:56;;;;;;;9.30;6.75;;;11.20;99.90;;;;;;4937022;29;20031;-73
2021/10/10 11:09:25;;;;;;;10.57;6.70;;;11.10;99.90;;;;;;4956524;28;20024;-73
2021/10/10 11:11:55;;;;;;;11.13;7.10;;;11.00;99.90;;;;;;4964010;28;20031;-73
2021/10/10 11:14:24;;;;;;;10.23;7.05;;;11.00;99.90;;;;;;4953876;28;20027;-73
2021/10/10 11:17:04;;;;;;;9.38;6.95;;;10.90;99.90;;;;;;4963782;28;20030;-73
2021/10/10 11:19:29;;;;;;;12.55;7.07;;;11.00;99.90;;;;;;4955011;28;20486;-73
2021/10/10 11:21:55;;;;;;;9.77;6.15;;;11.20;99.90;;;;;;4954301;29;20031;-73
2021/10/10 11:24:21;;;;;;;10.15;6.78;;;11.10;99.90;;;;;;4953842;29;20027;-73
2021/10/10 11:26:48;;;;;;;11.05;6.50;;;11.20;99.90;;;;;;4953607;28;20031;-73
2021/10/10 11:29:16;;;;;;;11.82;6.72;;;11.20;99.90;;;;;;4936601;29;20054;-73
2021/10/10 11:31:44;;;;;;;11.82;6.80;;;11.30;99.90;;;;;;4936456;29;20509;-73
2021/10/10 11:34:12;;;;;;;12.90;6.25;;;11.30;99.90;;;;;;4953831;29;20120;-73
2021/10/10 11:36:38;;;;;;;10.82;7.40;;;11.50;99.90;;;;;;4953727;28;20027;-73
2021/10/10 11:39:06;;;;;;;11.25;6.78;;;11.70;99.90;;;;;;4953540;28;20425;-73
2021/10/10 11:41:46;;;;;;;10.70;7.10;;;12.20;99.90;;;;;;4953492;29;20055;-72
2021/10/10 11:44:17;;;;;;;12.90;7.18;;;12.80;99.90;;;;;;4953779;29;20114;-73
2021/10/10 11:46:45;;;;;;;12.13;7.63;;;13.80;99.90;;;;;;4953975;29;20031;-74
2021/10/10 11:49:25;;;;;;;11.23;7.07;;;13.80;99.90;;;;;;4936460;29;20031;-73
2021/10/10 11:51:51;;;;;;;11.63;6.57;;;13.80;99.90;;;;;;4953668;29;20123;-74
2021/10/10 11:54:35;;;;;;;14.43;7.80;;;14.80;99.90;;;;;;4953878;29;20067;-73
2021/10/10 11:57:01;;;;;;;9.20;6.95;;;15.10;99.90;;;;;;4953580;29;20022;-74
2021/10/10 11:59:27;;;;;;;11.98;7.47;;;14.90;99.90;;;;;;4953457;28;20031;-74
2021/10/10 12:01:54;;;;;;;11.93;7.20;;;15.10;99.90;;;;;;4936173;29;20024;-74
2021/10/10 12:04:19;;;;;;;9.95;6.50;;;14.80;99.90;;;;;;4953224;29;20039;-74
2021/10/10 12:06:47;;;;;;;10.35;6.45;;;15.10;99.90;;;;;;4953226;29;20023;-74
2021/10/10 12:09:13;;;;;;;13.07;6.50;;;15.50;99.90;;;;;;4937361;28;20027;-74
2021/10/10 12:11:39;;;;;;;9.88;6.60;;;15.40;99.90;;;;;;4964802;28;20089;-74
2021/10/10 12:14:06;;;;;;;11.55;6.40;;;15.70;99.90;;;;;;4953384;29;20054;-74
2021/10/10 12:16:47;;;;;;;10.40;6.72;;;15.70;99.80;;;;;;4960640;28;20038;-74
2021/10/10 12:19:13;;;;;;;9.68;6.63;;;14.90;99.90;;;;;;4956518;28;20393;-74
2021/10/10 12:21:38;;;;;;;11.45;6.50;;;14.60;99.80;;;;;;4953200;29;20876;-74
2021/10/10 12:24:13;;;;;;;13.98;7.75;;;14.30;99.90;;;;;;4953349;29;20102;-74
2021/10/10 12:26:43;;;;;;;10.20;6.97;;;14.20;99.90;;;;;;4953231;29;20031;-74
2021/10/10 12:29:19;;;;;;;9.15;6.70;;;14.20;99.90;;;;;;4953124;28;20026;-73
2021/10/10 12:31:45;;;;;;;11.48;6.70;;;14.00;99.90;;;;;;4953109;28;20019;-74
2021/10/10 12:34:11;;;;;;;11.02;6.40;;;14.10;99.90;;;;;;4935961;29;20398;-74
2021/10/10 12:36:45;;;;;;;9.48;6.55;;;15.00;99.90;;;;;;4953267;28;20110;-74
2021/10/10 12:39:11;;;;;;;8.93;6.45;;;15.40;99.70;;;;;;4934173;29;20039;-74
2021/10/10 12:41:36;;;;;;;9.45;6.75;;;14.90;99.60;;;;;;4933775;29;20028;-74
2021/10/10 12:44:03;;;;;;;13.05;6.72;;;15.50;99.90;;;;;;4917002;29;20083;-74
2021/10/10 12:46:51;;;;;;;8.73;6.63;;;16.10;99.20;;;;;;4933846;29;20027;-74
2021/10/10 12:49:33;;;;;;;8.85;6.65;;;17.20;98.30;;;;;;4934084;29;20031;-74